Time,TemperatureF,DewpointF,PressureIn,WindDirection,WindDirectionDegrees,WindSpeedMPH,WindSpeedGustMPH,Humidity,HourlyPrecipIn,Conditions,Clouds,dailyrainin,SolarRadiationWatts/m^2,SoftwareType,DateUTC
2013-01-18 00:01:00,42.3,40.7,29.95,NW,321,7.2,11.5,94,0.00,CLR,OVC,1.04,0.0,WeatherDisplay:10.37,2013-01-18 05:01:00,
2013-01-18 00:03:00,42.3,40.7,29.95,WNW,296,4.1,9.0,94,0.00,RA,OVC,0.00,0.0,WeatherDisplay:10.37,2013-01-18 05:03:00,
2013-01-18 00:08:00,42.2,40.6,29.96,NW,325,3.7,8.1,94,0.00,RA,OVC,0.00,0.0,WeatherDisplay:10.37,2013-01-18 05:08:00,
2013-01-18 00:13:00,42.2,40.6,29.97,NNW,347,7.6,16.1,94,0.00,CLR,OVC,0.00,0.0,WeatherDisplay:10.37,2013-01-18 05:13:00,
2013-01-18 00:18:00,42.1,40.5,29.97,West,271,4.6,10.4,94,0.00,CLR,OVC,0.00,0.0,WeatherDisplay:10.37,2013-01-18 05:18:00,
2013-01-18 00:23:00,42.1,40.5,29.98,WNW,290,4.6,8.1,94,0.00,CLR,OVC,0.00,0.0,WeatherDisplay:10.37,2013-01-18 05:23:00,
2013-01-18 00:28:00,42.0,40.1,29.98,NNW,346,4.0,4.6,93,0.00,CLR,OVC,0.00,0.0,WeatherDisplay:10.37,2013-01-18 05:28:00,
2013-01-18 00:33:00,42.1,40.5,29.99,NNW,344,8.1,11.5,94,0.00,CLR,OVC,0.00,0.0,WeatherDisplay:10.37,2013-01-18 05:33:00,
2013-01-18 00:38:00,42.0,40.4,29.99,NNW,347,7.6,12.7,94,0.00,CLR,OVC,0.00,0.0,WeatherDisplay:10.37,2013-01-18 05:38:00,
2013-01-18 00:43:00,42.0,40.4,30.00,ENE,65,5.1,10.4,94,0.00,CLR,OVC,0.00,0.0,WeatherDisplay:10.37,2013-01-18 05:43:00,
2013-01-18 00:48:00,42.0,40.4,30.01,NE,36,5.0,14.0,94,0.00,CLR,OVC,0.00,0.0,WeatherDisplay:10.37,2013-01-18 05:48:00,
2013-01-18 00:53:00,41.9,40.3,30.01,NW,311,3.0,8.0,94,0.00,CLR,OVC,0.00,0.0,WeatherDisplay:10.37,2013-01-18 05:53:00,
2013-01-18 00:58:00,41.9,40.3,30.02,WNW,299,4.9,8.0,94,0.00,CLR,OVC,0.00,0.0,WeatherDisplay:10.37,2013-01-18 05:58:00,
2013-01-18 01:04:00,41.8,40.5,30.03,NNW,340,7.4,13.8,95,0.00,CLR,OVC,0.00,0.0,WeatherDisplay:10.37,2013-01-18 06:04:00,
2013-01-18 01:09:00,41.8,40.2,30.03,WNW,302,6.7,14.0,94,0.00,CLR,OVC,0.00,0.0,WeatherDisplay:10.37,2013-01-18 06:09:00,
2013-01-18 01:14:00,41.7,40.4,30.04,North,355,1.9,6.0,95,0.00,CLR,OVC,0.00,0.0,WeatherDisplay:10.37,2013-01-18 06:14:00,
2013-01-18 01:19:00,41.7,40.4,30.05,WNW,282,3.8,11.5,95,0.00,CLR,OVC,0.00,0.0,WeatherDisplay:10.37,2013-01-18 06:19:00,
2013-01-18 01:24:00,41.6,40.3,30.05,NW,318,11.1,21.0,95,0.00,CLR,OVC,0.00,0.0,WeatherDisplay:10.37,2013-01-18 06:24:00,
2013-01-18 01:29:00,41.3,39.7,30.06,NNW,338,6.4,11.5,94,0.00,CLR,OVC,0.00,0.0,WeatherDisplay:10.37,2013-01-18 06:29:00,
2013-01-18 01:34:00,41.1,39.5,30.06,North,355,8.4,13.8,94,0.00,CLR,OVC,0.00,0.0,WeatherDisplay:10.37,2013-01-18 06:34:00,
2013-01-18 01:39:00,41.0,39.4,30.06,NNE,26,3.9,11.5,94,0.01,RA,OVC,0.01,0.0,WeatherDisplay:10.37,2013-01-18 06:39:00,
2013-01-18 01:44:00,40.9,39.3,30.07,WNW,298,5.4,11.5,94,0.01,RA,OVC,0.01,0.0,WeatherDisplay:10.37,2013-01-18 06:44:00,
2013-01-18 01:49:00,40.9,39.6,30.06,NNW,331,6.1,11.5,95,0.01,,OVC,0.01,0.0,WeatherDisplay:10.37,2013-01-18 06:49:00,
2013-01-18 01:54:00,40.8,39.5,30.06,North,5,5.7,10.4,95,0.01,CLR,OVC,0.01,0.0,WeatherDisplay:10.37,2013-01-18 06:54:00,
2013-01-18 01:59:00,40.7,39.1,30.07,North,360,5.8,9.2,94,0.01,CLR,OVC,0.01,0.0,WeatherDisplay:10.37,2013-01-18 06:59:00,
2013-01-18 02:04:00,40.6,39.0,30.07,WNW,292,6.0,13.8,94,0.01,CLR,OVC,0.01,0.0,WeatherDisplay:10.37,2013-01-18 07:04:00,
2013-01-18 02:09:00,40.5,38.9,30.08,SSW,213,6.8,17.3,94,0.01,CLR,OVC,0.01,0.0,WeatherDisplay:10.37,2013-01-18 07:09:00,
2013-01-18 02:14:00,40.4,38.8,30.08,NNE,22,4.7,10.4,94,0.01,CLR,OVC,0.01,0.0,WeatherDisplay:10.37,2013-01-18 07:14:00,
2013-01-18 02:19:00,40.3,38.7,30.08,NW,315,7.2,16.0,94,0.01,CLR,OVC,0.01,0.0,WeatherDisplay:10.37,2013-01-18 07:19:00,
2013-01-18 02:24:00,40.2,38.6,30.08,NNE,33,2.5,11.5,94,0.01,CLR,OVC,0.01,0.0,WeatherDisplay:10.37,2013-01-18 07:24:00,
2013-01-18 02:29:00,40.2,38.6,30.09,NW,313,4.7,8.1,94,0.01,CLR,OVC,0.01,0.0,WeatherDisplay:10.37,2013-01-18 07:29:00,
2013-01-18 02:34:00,40.0,38.4,30.09,NW,311,5.4,11.0,94,0.01,CLR,OVC,0.01,0.0,WeatherDisplay:10.37,2013-01-18 07:34:00,
2013-01-18 02:39:00,39.9,38.3,30.08,North,5,5.3,9.2,94,0.00,CLR,OVC,0.01,0.0,WeatherDisplay:10.37,2013-01-18 07:39:00,
2013-01-18 02:44:00,39.8,37.9,30.08,WNW,302,2.8,5.8,93,0.00,CLR,OVC,0.01,0.0,WeatherDisplay:10.37,2013-01-18 07:44:00,
2013-01-18 02:49:00,39.6,37.7,30.08,NNW,344,5.1,11.5,93,0.00,CLR,OVC,0.01,0.0,WeatherDisplay:10.37,2013-01-18 07:49:00,
2013-01-18 02:54:00,39.5,37.6,30.09,NNW,333,2.9,11.5,93,0.00,CLR,OVC,0.01,0.0,WeatherDisplay:10.37,2013-01-18 07:54:00,
2013-01-18 02:59:00,39.4,37.5,30.10,NW,321,3.6,9.2,93,0.00,CLR,OVC,0.01,0.0,WeatherDisplay:10.37,2013-01-18 07:59:00,
2013-01-18 03:04:00,39.3,37.7,30.12,North,355,4.1,11.5,94,0.00,CLR,OVC,0.01,0.0,WeatherDisplay:10.37,2013-01-18 08:04:00,
2013-01-18 03:09:00,39.4,37.8,30.14,NW,313,7.5,16.1,94,0.00,CLR,OVC,0.01,0.0,WeatherDisplay:10.37,2013-01-18 08:09:00,
2013-01-18 03:14:00,39.5,37.9,30.15,WNW,286,7.5,12.7,94,0.00,CLR,OVC,0.01,0.0,WeatherDisplay:10.37,2013-01-18 08:14:00,
2013-01-18 03:19:00,39.6,38.0,30.16,NNE,15,4.3,10.4,94,0.00,CLR,OVC,0.01,0.0,WeatherDisplay:10.37,2013-01-18 08:19:00,
2013-01-18 03:24:00,39.7,38.1,30.16,North,355,3.3,6.9,94,0.00,CLR,OVC,0.01,0.0,WeatherDisplay:10.37,2013-01-18 08:24:00,
2013-01-18 03:29:00,39.7,38.1,30.16,NW,321,7.9,11.5,94,0.00,CLR,OVC,0.01,0.0,WeatherDisplay:10.37,2013-01-18 08:29:00,
2013-01-18 03:34:00,39.7,37.8,30.17,NNW,344,5.3,10.4,93,0.00,CLR,OVC,0.01,0.0,WeatherDisplay:10.37,2013-01-18 08:34:00,
2013-01-18 03:39:00,39.7,37.8,30.17,NW,306,6.5,11.5,93,0.00,CLR,OVC,0.01,0.0,WeatherDisplay:10.37,2013-01-18 08:39:00,
2013-01-18 03:44:00,39.6,37.7,30.17,NNW,340,9.3,15.0,93,0.00,CLR,OVC,0.01,0.0,WeatherDisplay:10.37,2013-01-18 08:44:00,
2013-01-18 03:49:00,39.6,37.7,30.18,WNW,301,9.2,19.6,93,0.00,CLR,OVC,0.01,0.0,WeatherDisplay:10.37,2013-01-18 08:49:00,
2013-01-18 03:54:00,39.5,37.6,30.18,WNW,283,9.3,17.3,93,0.00,CLR,OVC,0.01,0.0,WeatherDisplay:10.37,2013-01-18 08:54:00,
2013-01-18 03:59:00,39.4,37.3,30.17,NNW,330,3.3,7.0,92,0.00,CLR,OVC,0.01,0.0,WeatherDisplay:10.37,2013-01-18 08:59:00,
2013-01-18 04:04:00,39.2,37.1,30.18,WNW,299,6.3,10.4,92,0.00,CLR,OVC,0.01,0.0,WeatherDisplay:10.37,2013-01-18 09:04:00,
2013-01-18 04:09:00,39.1,37.0,30.17,North,349,7.2,11.5,92,0.00,CLR,OVC,0.01,0.0,WeatherDisplay:10.37,2013-01-18 09:09:00,
2013-01-18 04:14:00,39.0,36.9,30.17,North,355,1.7,3.5,92,0.00,CLR,OVC,0.01,0.0,WeatherDisplay:10.37,2013-01-18 09:14:00,
2013-01-18 04:19:00,38.9,36.8,30.18,NNW,327,4.8,6.9,92,0.00,CLR,OVC,0.01,0.0,WeatherDisplay:10.37,2013-01-18 09:19:00,
2013-01-18 04:24:00,38.8,36.9,30.18,WNW,302,5.7,11.0,93,0.00,CLR,OVC,0.01,0.0,WeatherDisplay:10.37,2013-01-18 09:24:00,
2013-01-18 04:29:00,38.9,37.0,30.19,NW,323,2.3,6.9,93,0.00,CLR,OVC,0.01,0.0,WeatherDisplay:10.37,2013-01-18 09:29:00,
2013-01-18 04:34:00,38.8,36.9,30.19,NNW,336,1.6,5.0,93,0.00,CLR,OVC,0.01,0.0,WeatherDisplay:10.37,2013-01-18 09:34:00,
2013-01-18 04:39:00,38.8,36.9,30.19,NW,320,1.6,3.5,93,0.00,CLR,OVC,0.01,0.0,WeatherDisplay:10.37,2013-01-18 09:39:00,
2013-01-18 04:44:00,38.7,36.9,30.20,North,351,3.7,9.2,93,0.00,CLR,OVC,0.01,0.0,WeatherDisplay:10.37,2013-01-18 09:44:00,
2013-01-18 04:49:00,38.7,36.9,30.20,NW,319,3.6,6.0,93,0.00,CLR,OVC,0.01,0.0,WeatherDisplay:10.37,2013-01-18 09:49:00,
2013-01-18 04:54:00,38.6,36.8,30.20,NNW,346,2.8,3.5,93,0.00,CLR,OVC,0.01,0.0,WeatherDisplay:10.37,2013-01-18 09:54:00,
2013-01-18 04:59:00,38.6,36.8,30.21,West,265,2.3,6.9,93,0.00,CLR,OVC,0.01,0.0,WeatherDisplay:10.37,2013-01-18 09:59:00,
2013-01-18 05:04:00,38.6,36.8,30.21,NW,314,6.0,11.5,93,0.00,CLR,OVC,0.01,0.0,WeatherDisplay:10.37,2013-01-18 10:04:00,
2013-01-18 05:09:00,38.6,37.0,30.22,NW,310,3.4,7.0,94,0.00,CLR,OVC,0.01,0.0,WeatherDisplay:10.37,2013-01-18 10:09:00,
2013-01-18 05:14:00,38.5,36.7,30.22,WNW,291,2.4,11.5,93,0.00,CLR,OVC,0.01,0.0,WeatherDisplay:10.37,2013-01-18 10:14:00,
2013-01-18 05:19:00,38.6,36.8,30.22,NNW,327,4.5,9.2,93,0.00,CLR,OVC,0.01,0.0,WeatherDisplay:10.37,2013-01-18 10:19:00,
2013-01-18 05:24:00,38.5,36.7,30.22,NNW,330,2.3,5.0,93,0.00,CLR,OVC,0.01,0.0,WeatherDisplay:10.37,2013-01-18 10:24:00,
2013-01-18 05:29:00,38.4,36.6,30.22,North,355,0.8,2.0,93,0.00,CLR,OVC,0.01,0.0,WeatherDisplay:10.37,2013-01-18 10:29:00,
2013-01-18 05:34:00,38.4,36.6,30.23,West,270,5.5,8.1,93,0.00,CLR,OVC,0.01,0.0,WeatherDisplay:10.37,2013-01-18 10:34:00,
2013-01-18 05:39:00,38.3,36.5,30.24,WNW,293,2.2,3.5,93,0.00,CLR,OVC,0.01,0.0,WeatherDisplay:10.37,2013-01-18 10:39:00,
2013-01-18 05:44:00,38.2,36.4,30.26,NNW,327,1.0,1.1,93,0.00,CLR,OVC,0.01,0.0,WeatherDisplay:10.37,2013-01-18 10:44:00,
2013-01-18 05:49:00,38.0,36.2,30.27,NNW,348,1.5,3.5,93,0.00,CLR,OVC,0.01,0.0,WeatherDisplay:10.37,2013-01-18 10:49:00,
2013-01-18 05:54:00,37.9,36.1,30.28,NNW,328,3.4,5.8,93,0.00,CLR,OVC,0.01,0.0,WeatherDisplay:10.37,2013-01-18 10:54:00,
2013-01-18 05:59:00,37.8,36.0,30.28,NNW,332,0.6,3.5,93,0.00,CLR,OVC,0.01,0.0,WeatherDisplay:10.37,2013-01-18 10:59:00,
2013-01-18 06:04:00,37.7,35.9,30.28,NW,315,1.4,7.0,93,0.00,CLR,OVC,0.01,0.0,WeatherDisplay:10.37,2013-01-18 11:04:00,
2013-01-18 06:09:00,37.7,36.1,30.28,NW,313,2.0,3.5,94,0.00,CLR,OVC,0.01,0.0,WeatherDisplay:10.37,2013-01-18 11:09:00,
2013-01-18 06:14:00,37.6,36.0,30.27,North,350,2.6,5.8,94,0.00,CLR,OVC,0.01,0.0,WeatherDisplay:10.37,2013-01-18 11:14:00,
2013-01-18 06:19:00,37.5,35.7,30.27,NNE,28,1.5,5.8,93,0.00,CLR,OVC,0.01,0.0,WeatherDisplay:10.37,2013-01-18 11:19:00,
2013-01-18 06:24:00,37.5,35.9,30.27,North,5,0.8,6.9,94,0.00,CLR,OVC,0.01,0.0,WeatherDisplay:10.37,2013-01-18 11:24:00,
2013-01-18 06:29:00,37.5,35.9,30.26,WSW,250,3.6,7.0,94,0.00,CLR,OVC,0.01,0.0,WeatherDisplay:10.37,2013-01-18 11:29:00,
2013-01-18 06:34:00,37.5,35.9,30.26,WNW,301,1.6,3.0,94,0.00,CLR,OVC,0.01,0.0,WeatherDisplay:10.37,2013-01-18 11:34:00,
2013-01-18 06:39:00,37.4,35.8,30.27,NW,316,3.9,10.4,94,0.00,CLR,OVC,0.01,0.0,WeatherDisplay:10.37,2013-01-18 11:39:00,
2013-01-18 06:44:00,37.2,35.6,30.27,NW,311,4.2,9.2,94,0.00,CLR,OVC,0.01,0.0,WeatherDisplay:10.37,2013-01-18 11:44:00,
2013-01-18 06:49:00,37.1,35.5,30.27,NW,318,1.7,4.6,94,0.00,CLR,OVC,0.01,0.0,WeatherDisplay:10.37,2013-01-18 11:49:00,
2013-01-18 06:54:00,36.9,35.3,30.27,NW,320,1.7,3.5,94,0.00,CLR,OVC,0.01,0.0,WeatherDisplay:10.37,2013-01-18 11:54:00,
2013-01-18 06:59:00,36.8,35.2,30.28,West,280,1.6,3.5,94,0.00,CLR,OVC,0.01,0.0,WeatherDisplay:10.37,2013-01-18 11:59:00,
2013-01-18 07:04:00,36.6,35.0,30.28,NNW,343,1.4,4.6,94,0.00,OVC,,0.01,0.0,WeatherDisplay:10.37,2013-01-18 12:04:00,
2013-01-18 07:09:00,36.5,34.9,30.29,NE,50,3.2,3.5,94,0.00,OVC,,0.01,0.0,WeatherDisplay:10.37,2013-01-18 12:09:00,
2013-01-18 07:14:00,36.4,34.8,30.29,North,355,4.9,9.2,94,0.00,OVC,,0.01,0.0,WeatherDisplay:10.37,2013-01-18 12:14:00,
2013-01-18 07:19:00,36.3,34.7,30.30,NW,310,2.6,3.5,94,0.00,OVC,,0.01,0.0,WeatherDisplay:10.37,2013-01-18 12:19:00,
2013-01-18 07:24:00,36.3,34.7,30.31,North,350,0.3,3.5,94,0.00,OVC,,0.01,0.0,WeatherDisplay:10.37,2013-01-18 12:24:00,
2013-01-18 07:30:00,36.3,34.7,30.31,WNW,284,2.1,3.5,94,0.00,OVC,,0.01,0.0,WeatherDisplay:10.37,2013-01-18 12:30:00,
2013-01-18 07:35:00,36.4,34.8,30.32,WNW,289,0.8,4.6,94,0.00,OVC,,0.01,0.0,WeatherDisplay:10.37,2013-01-18 12:35:00,
2013-01-18 07:40:00,36.5,34.9,30.33,North,355,1.1,9.2,94,0.00,OVC,,0.01,0.0,WeatherDisplay:10.37,2013-01-18 12:40:00,
2013-01-18 07:45:00,36.5,34.9,30.33,North,11,3.1,6.9,94,0.00,OVC,,0.01,0.0,WeatherDisplay:10.37,2013-01-18 12:45:00,
2013-01-18 07:50:00,36.6,35.0,30.33,NNW,346,2.1,4.6,94,0.00,OVC,,0.01,0.0,WeatherDisplay:10.37,2013-01-18 12:50:00,
2013-01-18 07:55:00,36.8,35.5,30.34,North,355,1.3,1.3,95,0.00,OVC,,0.01,0.0,WeatherDisplay:10.37,2013-01-18 12:55:00,
2013-01-18 08:00:00,37.0,35.4,30.34,NNW,335,2.4,5.0,94,0.00,OVC,,0.01,0.0,WeatherDisplay:10.37,2013-01-18 13:00:00,
2013-01-18 08:05:00,37.0,35.4,30.35,NNW,336,0.5,5.8,94,0.00,OVC,,0.01,0.0,WeatherDisplay:10.37,2013-01-18 13:05:00,
2013-01-18 08:10:00,37.0,35.4,30.36,North,349,0.3,3.5,94,0.00,OVC,,0.01,0.0,WeatherDisplay:10.37,2013-01-18 13:10:00,
2013-01-18 08:15:00,37.1,35.5,30.36,NW,306,2.7,5.0,94,0.00,OVC,,0.01,0.0,WeatherDisplay:10.37,2013-01-18 13:15:00,
2013-01-18 08:20:00,37.3,35.7,30.37,West,272,4.6,5.8,94,0.00,OVC,,0.01,0.0,WeatherDisplay:10.37,2013-01-18 13:20:00,
2013-01-18 08:25:00,37.5,35.7,30.37,NNW,344,4.5,4.6,93,0.00,OVC,,0.01,0.0,WeatherDisplay:10.37,2013-01-18 13:25:00,
2013-01-18 08:30:00,37.6,35.8,30.37,NW,312,1.9,5.8,93,0.00,OVC,,0.01,0.0,WeatherDisplay:10.37,2013-01-18 13:30:00,
2013-01-18 08:35:00,37.8,36.0,30.38,NW,323,2.2,5.8,93,0.00,OVC,,0.01,0.0,WeatherDisplay:10.37,2013-01-18 13:35:00,
2013-01-18 08:40:00,38.0,36.2,30.39,North,11,1.1,4.6,93,0.00,OVC,,0.01,0.0,WeatherDisplay:10.37,2013-01-18 13:40:00,
2013-01-18 08:45:00,38.2,36.4,30.39,NW,319,3.1,4.6,93,0.00,OVC,,0.01,0.0,WeatherDisplay:10.37,2013-01-18 13:45:00,
2013-01-18 08:50:00,38.4,36.3,30.40,NNW,337,4.0,10.4,92,0.00,OVC,,0.01,0.0,WeatherDisplay:10.37,2013-01-18 13:50:00,
2013-01-18 08:55:00,38.7,36.6,30.40,WNW,301,3.0,6.9,92,0.00,OVC,,0.01,0.0,WeatherDisplay:10.37,2013-01-18 13:55:00,
2013-01-18 09:00:00,39.3,37.2,30.41,NNW,330,4.4,5.8,92,0.00,OVC,,0.01,0.0,WeatherDisplay:10.37,2013-01-18 14:00:00,
2013-01-18 09:05:00,40.0,37.6,30.41,NNW,342,2.7,8.1,91,0.00,OVC,,0.01,0.0,WeatherDisplay:10.37,2013-01-18 14:05:00,
2013-01-18 09:10:00,40.6,37.9,30.41,NNW,335,1.7,4.6,90,0.00,OVC,,0.01,0.0,WeatherDisplay:10.37,2013-01-18 14:10:00,
2013-01-18 09:15:00,41.0,37.7,30.41,North,9,4.0,8.1,88,0.00,OVC,,0.01,0.0,WeatherDisplay:10.37,2013-01-18 14:15:00,
2013-01-18 09:20:00,41.1,37.5,30.42,NNW,335,3.3,8.1,87,0.00,OVC,,0.01,0.0,WeatherDisplay:10.37,2013-01-18 14:20:00,
2013-01-18 09:25:00,41.5,37.9,30.42,North,355,2.3,6.9,87,0.00,OVC,,0.01,0.0,WeatherDisplay:10.37,2013-01-18 14:25:00,
2013-01-18 09:30:00,42.0,38.1,30.42,NNW,327,2.5,4.6,86,0.00,OVC,,0.01,0.0,WeatherDisplay:10.37,2013-01-18 14:30:00,
2013-01-18 09:35:00,42.2,37.4,30.43,NNW,348,5.2,9.2,83,0.00,OVC,,0.01,0.0,WeatherDisplay:10.37,2013-01-18 14:35:00,
2013-01-18 09:40:00,42.3,37.8,30.43,NNW,345,1.0,3.5,84,0.00,OVC,,0.01,0.0,WeatherDisplay:10.37,2013-01-18 14:40:00,
2013-01-18 09:45:00,42.8,37.4,30.43,NE,55,6.2,10.4,81,0.00,OVC,,0.01,0.0,WeatherDisplay:10.37,2013-01-18 14:45:00,
2013-01-18 09:50:00,43.2,37.4,30.44,NNW,331,3.7,7.0,80,0.00,OVC,,0.01,0.0,WeatherDisplay:10.37,2013-01-18 14:50:00,
2013-01-18 09:55:00,43.7,38.3,30.44,West,273,4.2,6.9,81,0.00,OVC,,0.01,0.0,WeatherDisplay:10.37,2013-01-18 14:55:00,
2013-01-18 10:00:00,44.1,37.7,30.44,SW,219,2.5,5.8,78,0.00,OVC,,0.01,0.0,WeatherDisplay:10.37,2013-01-18 15:00:00,
2013-01-18 10:05:00,44.5,38.4,30.44,West,281,1.9,4.6,79,0.00,OVC,,0.01,0.0,WeatherDisplay:10.37,2013-01-18 15:05:00,
2013-01-18 10:10:00,44.9,37.8,30.44,NNW,328,3.4,8.1,76,0.00,OVC,,0.01,0.0,WeatherDisplay:10.37,2013-01-18 15:10:00,
2013-01-18 10:15:00,45.3,38.8,30.44,NW,317,0.9,3.5,78,0.00,OVC,,0.01,0.0,WeatherDisplay:10.37,2013-01-18 15:15:00,
2013-01-18 10:20:00,45.8,37.6,30.44,NW,315,3.3,6.9,73,0.00,OVC,,0.01,0.0,WeatherDisplay:10.37,2013-01-18 15:20:00,
2013-01-18 10:25:00,45.9,37.7,30.44,NW,315,2.6,10.4,73,0.00,OVC,,0.01,0.0,WeatherDisplay:10.37,2013-01-18 15:25:00,
2013-01-18 10:30:00,45.8,36.6,30.44,NNW,342,6.2,10.4,70,0.00,OVC,,0.01,0.0,WeatherDisplay:10.37,2013-01-18 15:30:00,
2013-01-18 10:35:00,45.7,36.5,30.44,NW,313,7.6,11.5,70,0.00,OVC,,0.01,0.0,WeatherDisplay:10.37,2013-01-18 15:35:00,
2013-01-18 10:40:00,45.8,35.5,30.44,NNW,344,8.3,13.8,67,0.00,OVC,,0.01,0.0,WeatherDisplay:10.37,2013-01-18 15:40:00,
2013-01-18 10:45:00,45.8,35.8,30.43,NNW,346,4.9,10.4,68,0.00,OVC,,0.01,0.0,WeatherDisplay:10.37,2013-01-18 15:45:00,
2013-01-18 10:50:00,46.1,36.5,30.43,NW,309,6.8,13.8,69,0.00,OVC,,0.01,0.0,WeatherDisplay:10.37,2013-01-18 15:50:00,
2013-01-18 10:55:00,46.5,36.1,30.43,NW,321,6.2,12.7,67,0.00,OVC,,0.01,0.0,WeatherDisplay:10.37,2013-01-18 15:55:00,
2013-01-18 11:00:00,47.1,37.8,30.43,West,280,3.5,9.2,70,0.00,OVC,,0.01,0.0,WeatherDisplay:10.37,2013-01-18 16:00:00,
2013-01-18 11:05:00,47.4,35.4,30.43,North,5,7.1,11.5,63,0.00,OVC,,0.01,0.0,WeatherDisplay:10.37,2013-01-18 16:05:00,
2013-01-18 11:10:00,47.4,36.6,30.43,NNW,346,5.4,11.0,66,0.00,OVC,,0.01,0.0,WeatherDisplay:10.37,2013-01-18 16:10:00,
2013-01-18 11:15:00,47.4,35.8,30.43,NNW,329,2.9,4.6,64,0.00,OVC,,0.01,0.0,WeatherDisplay:10.37,2013-01-18 16:15:00,
2013-01-18 11:20:00,47.8,35.4,30.44,North,355,6.4,11.5,62,0.00,OVC,,0.01,0.0,WeatherDisplay:10.37,2013-01-18 16:20:00,
2013-01-18 11:25:00,47.8,35.4,30.43,NNW,332,3.5,9.2,62,0.00,OVC,,0.01,0.0,WeatherDisplay:10.37,2013-01-18 16:25:00,
2013-01-18 11:30:00,48.0,36.0,30.43,NE,34,2.2,11.5,63,0.00,OVC,,0.01,0.0,WeatherDisplay:10.37,2013-01-18 16:30:00,
2013-01-18 11:35:00,48.4,36.0,30.43,NW,326,2.8,8.1,62,0.00,OVC,,0.01,0.0,WeatherDisplay:10.37,2013-01-18 16:35:00,
2013-01-18 11:40:00,48.6,35.7,30.43,NNE,29,3.2,6.0,61,0.00,OVC,,0.01,0.0,WeatherDisplay:10.37,2013-01-18 16:40:00,
2013-01-18 11:45:00,48.7,35.4,30.43,West,279,4.5,6.9,60,0.00,OVC,,0.01,0.0,WeatherDisplay:10.37,2013-01-18 16:45:00,
2013-01-18 11:50:00,49.1,35.8,30.43,North,360,0.3,3.0,60,0.00,OVC,,0.01,0.0,WeatherDisplay:10.37,2013-01-18 16:50:00,
2013-01-18 11:55:00,49.1,34.5,30.43,NE,42,3.0,4.6,57,0.00,OVC,,0.01,0.0,WeatherDisplay:10.37,2013-01-18 16:55:00,
2013-01-18 12:00:00,49.2,35.9,30.43,North,351,5.5,9.2,60,0.00,OVC,,0.01,0.0,WeatherDisplay:10.37,2013-01-18 17:00:00,
2013-01-18 12:05:00,49.1,34.9,30.43,North,360,3.1,5.8,58,0.00,OVC,,0.01,0.0,WeatherDisplay:10.37,2013-01-18 17:05:00,
2013-01-18 12:10:00,49.4,34.3,30.42,North,350,2.4,5.8,56,0.00,OVC,,0.01,0.0,WeatherDisplay:10.37,2013-01-18 17:10:00,
2013-01-18 12:15:00,49.5,35.8,30.42,NNW,327,2.5,6.9,59,0.00,OVC,,0.01,0.0,WeatherDisplay:10.37,2013-01-18 17:15:00,
2013-01-18 12:20:00,49.7,34.6,30.41,NW,323,3.7,9.2,56,0.00,OVC,,0.01,0.0,WeatherDisplay:10.37,2013-01-18 17:20:00,
2013-01-18 12:25:00,49.7,35.5,30.41,West,276,2.8,5.0,58,0.00,OVC,,0.01,0.0,WeatherDisplay:10.37,2013-01-18 17:25:00,
2013-01-18 12:30:00,49.9,33.9,30.41,NE,52,4.2,8.1,54,0.00,OVC,,0.01,0.0,WeatherDisplay:10.37,2013-01-18 17:30:00,
2013-01-18 12:35:00,50.1,34.5,30.41,North,5,2.4,8.1,55,0.00,OVC,,0.01,0.0,WeatherDisplay:10.37,2013-01-18 17:35:00,
2013-01-18 12:40:00,50.5,34.5,30.42,NNW,339,3.4,6.0,54,0.00,OVC,,0.01,0.0,WeatherDisplay:10.37,2013-01-18 17:40:00,
2013-01-18 12:45:00,50.8,34.3,30.41,NNE,18,5.6,6.9,53,0.00,OVC,,0.01,0.0,WeatherDisplay:10.37,2013-01-18 17:45:00,
2013-01-18 12:50:00,50.6,32.1,30.41,NNE,20,4.8,6.9,49,0.00,OVC,,0.01,0.0,WeatherDisplay:10.37,2013-01-18 17:50:00,
2013-01-18 12:55:00,50.6,33.1,30.41,North,355,3.3,8.1,51,0.00,OVC,,0.01,0.0,WeatherDisplay:10.37,2013-01-18 17:55:00,
2013-01-18 13:00:00,50.7,32.7,30.41,NNW,336,3.2,8.0,50,0.00,OVC,,0.01,0.0,WeatherDisplay:10.37,2013-01-18 18:00:00,
2013-01-18 13:05:00,50.8,31.8,30.41,East,82,3.6,10.0,48,0.00,OVC,,0.01,0.0,WeatherDisplay:10.37,2013-01-18 18:05:00,
2013-01-18 13:10:00,50.8,31.8,30.41,NNW,344,2.8,10.4,48,0.00,OVC,,0.01,0.0,WeatherDisplay:10.37,2013-01-18 18:10:00,
2013-01-18 13:15:00,50.9,32.4,30.41,NNE,15,4.7,5.8,49,0.00,OVC,,0.01,0.0,WeatherDisplay:10.37,2013-01-18 18:15:00,
2013-01-18 13:20:00,51.0,31.5,30.41,NNW,338,4.5,6.9,47,0.00,OVC,,0.01,0.0,WeatherDisplay:10.37,2013-01-18 18:20:00,
2013-01-18 13:25:00,51.0,32.5,30.41,ENE,74,4.5,6.9,49,0.00,OVC,,0.01,0.0,WeatherDisplay:10.37,2013-01-18 18:25:00,
2013-01-18 13:31:00,51.1,31.6,30.41,North,9,6.4,10.4,47,0.00,OVC,,0.01,0.0,WeatherDisplay:10.37,2013-01-18 18:31:00,
2013-01-18 13:36:00,51.2,32.2,30.41,NE,51,2.2,5.8,48,0.00,OVC,,0.01,0.0,WeatherDisplay:10.37,2013-01-18 18:36:00,
2013-01-18 13:41:00,51.2,31.6,30.41,NNE,16,4.2,6.9,47,0.00,OVC,,0.01,0.0,WeatherDisplay:10.37,2013-01-18 18:41:00,
2013-01-18 13:46:00,51.2,31.1,30.41,NNW,340,5.0,9.2,46,0.00,OVC,,0.01,0.0,WeatherDisplay:10.37,2013-01-18 18:46:00,
2013-01-18 13:51:00,51.4,31.8,30.41,North,355,1.3,5.8,47,0.00,OVC,,0.01,0.0,WeatherDisplay:10.37,2013-01-18 18:51:00,
2013-01-18 13:56:00,51.9,32.8,30.41,WNW,282,3.2,3.5,48,0.00,OVC,,0.01,0.0,WeatherDisplay:10.37,2013-01-18 18:56:00,
2013-01-18 14:01:00,52.3,31.0,30.41,NNE,22,2.0,6.9,44,0.00,OVC,,0.01,0.0,WeatherDisplay:10.37,2013-01-18 19:01:00,
2013-01-18 14:06:00,52.2,30.9,30.41,North,5,3.3,9.2,44,0.00,OVC,,0.01,0.0,WeatherDisplay:10.37,2013-01-18 19:06:00,
2013-01-18 14:11:00,52.0,30.2,30.41,NNW,329,5.6,8.1,43,0.00,OVC,,0.01,0.0,WeatherDisplay:10.37,2013-01-18 19:11:00,
2013-01-18 14:16:00,51.8,30.6,30.41,NE,40,3.2,9.2,44,0.00,OVC,,0.01,0.0,WeatherDisplay:10.37,2013-01-18 19:16:00,
2013-01-18 14:21:00,51.9,30.6,30.41,NNW,340,3.3,5.0,44,0.00,OVC,,0.01,0.0,WeatherDisplay:10.37,2013-01-18 19:21:00,
2013-01-18 14:26:00,51.9,30.6,30.41,NW,323,5.0,11.5,44,0.00,OVC,,0.01,0.0,WeatherDisplay:10.37,2013-01-18 19:26:00,
2013-01-18 14:31:00,51.9,30.6,30.41,NNW,346,4.5,9.2,44,0.00,OVC,,0.01,0.0,WeatherDisplay:10.37,2013-01-18 19:31:00,
2013-01-18 14:36:00,51.5,30.8,30.41,NNE,20,8.7,12.7,45,0.00,OVC,,0.01,0.0,WeatherDisplay:10.37,2013-01-18 19:36:00,
2013-01-18 14:41:00,51.4,30.7,30.41,NNW,331,4.9,6.0,45,0.00,OVC,,0.01,0.0,WeatherDisplay:10.37,2013-01-18 19:41:00,
2013-01-18 14:46:00,51.4,30.2,30.41,WNW,296,5.3,8.1,44,0.00,OVC,,0.01,0.0,WeatherDisplay:10.37,2013-01-18 19:46:00,
2013-01-18 14:51:00,51.5,31.9,30.41,NE,36,5.1,8.1,47,0.00,OVC,,0.01,0.0,WeatherDisplay:10.37,2013-01-18 19:51:00,
2013-01-18 14:56:00,51.3,31.7,30.41,North,5,4.2,10.0,47,0.00,OVC,,0.01,0.0,WeatherDisplay:10.37,2013-01-18 19:56:00,
2013-01-18 15:01:00,51.5,31.4,30.41,NE,45,4.9,11.5,46,0.00,OVC,,0.01,0.0,WeatherDisplay:10.37,2013-01-18 20:01:00,
2013-01-18 15:06:00,51.7,31.0,30.42,NW,309,1.9,3.5,45,0.00,OVC,,0.01,0.0,WeatherDisplay:10.37,2013-01-18 20:06:00,
2013-01-18 15:11:00,52.0,31.8,30.42,NNE,24,5.8,11.5,46,0.00,OVC,,0.01,0.0,WeatherDisplay:10.37,2013-01-18 20:11:00,
2013-01-18 15:16:00,51.9,30.6,30.42,NNW,344,2.1,4.0,44,0.00,OVC,,0.01,0.0,WeatherDisplay:10.37,2013-01-18 20:16:00,
2013-01-18 15:21:00,51.9,30.6,30.42,North,5,2.4,3.5,44,0.00,OVC,,0.01,0.0,WeatherDisplay:10.37,2013-01-18 20:21:00,
2013-01-18 15:26:00,51.7,31.0,30.42,WNW,296,4.4,6.9,45,0.00,OVC,,0.01,0.0,WeatherDisplay:10.37,2013-01-18 20:26:00,
2013-01-18 15:31:00,51.7,31.0,30.42,NE,34,3.8,5.8,45,0.00,OVC,,0.01,0.0,WeatherDisplay:10.37,2013-01-18 20:31:00,
2013-01-18 15:36:00,51.7,31.0,30.42,North,355,4.6,9.2,45,0.00,OVC,,0.01,0.0,WeatherDisplay:10.37,2013-01-18 20:36:00,
2013-01-18 15:41:00,51.6,31.5,30.43,North,5,2.3,4.6,46,0.00,OVC,,0.01,0.0,WeatherDisplay:10.37,2013-01-18 20:41:00,
2013-01-18 15:46:00,51.5,30.8,30.43,North,360,4.0,5.8,45,0.00,OVC,,0.01,0.0,WeatherDisplay:10.37,2013-01-18 20:46:00,
2013-01-18 15:51:00,51.5,30.8,30.43,ENE,57,2.8,3.5,45,0.00,OVC,,0.01,0.0,WeatherDisplay:10.37,2013-01-18 20:51:00,
2013-01-18 15:56:00,51.5,30.3,30.43,NE,34,0.3,3.5,44,0.00,OVC,,0.01,0.0,WeatherDisplay:10.37,2013-01-18 20:56:00,
2013-01-18 16:01:00,51.1,32.1,30.44,NW,315,1.5,3.5,48,0.00,OVC,,0.01,0.0,WeatherDisplay:10.37,2013-01-18 21:01:00,
2013-01-18 16:06:00,51.2,31.6,30.44,ENE,60,1.7,3.5,47,0.00,OVC,,0.01,0.0,WeatherDisplay:10.37,2013-01-18 21:06:00,
2013-01-18 16:11:00,51.0,30.9,30.44,NE,44,2.5,4.6,46,0.00,OVC,,0.01,0.0,WeatherDisplay:10.37,2013-01-18 21:11:00,
2013-01-18 16:16:00,50.9,31.4,30.44,North,351,2.5,3.5,47,0.00,OVC,,0.01,0.0,WeatherDisplay:10.37,2013-01-18 21:16:00,
2013-01-18 16:21:00,50.9,30.8,30.45,NNW,344,4.3,6.9,46,0.00,OVC,,0.01,0.0,WeatherDisplay:10.37,2013-01-18 21:21:00,
2013-01-18 16:26:00,50.8,31.3,30.45,NE,53,1.4,3.5,47,0.00,OVC,,0.01,0.0,WeatherDisplay:10.37,2013-01-18 21:26:00,
2013-01-18 16:31:00,50.7,31.7,30.45,NNE,28,1.0,2.3,48,0.00,OVC,,0.01,0.0,WeatherDisplay:10.37,2013-01-18 21:31:00,
2013-01-18 16:36:00,50.4,30.9,30.45,NNW,341,2.9,4.6,47,0.00,OVC,,0.01,0.0,WeatherDisplay:10.37,2013-01-18 21:36:00,
2013-01-18 16:41:00,49.8,31.4,30.45,NNW,332,2.4,7.0,49,0.00,OVC,,0.01,0.0,WeatherDisplay:10.37,2013-01-18 21:41:00,
2013-01-18 16:46:00,49.4,31.0,30.45,North,360,1.4,3.5,49,0.00,OVC,,0.01,0.0,WeatherDisplay:10.37,2013-01-18 21:46:00,
2013-01-18 16:51:00,49.0,31.2,30.45,NNW,346,2.1,4.6,50,0.00,OVC,,0.01,0.0,WeatherDisplay:10.37,2013-01-18 21:51:00,
2013-01-18 16:56:00,48.6,31.3,30.45,North,355,1.0,4.6,51,0.00,OVC,,0.01,0.0,WeatherDisplay:10.37,2013-01-18 21:56:00,
2013-01-18 17:01:00,48.2,30.4,30.45,North,5,2.0,5.8,50,0.00,OVC,,0.01,0.0,WeatherDisplay:10.37,2013-01-18 22:01:00,
2013-01-18 17:06:00,47.9,30.6,30.45,North,360,0.0,0.0,51,0.00,OVC,,0.01,0.0,WeatherDisplay:10.37,2013-01-18 22:06:00,
2013-01-18 17:11:00,47.6,31.3,30.45,North,355,0.0,0.0,53,0.00,OVC,,0.01,0.0,WeatherDisplay:10.37,2013-01-18 22:11:00,
2013-01-18 17:16:00,47.2,31.8,30.45,North,351,0.0,1.1,55,0.00,OVC,,0.01,0.0,WeatherDisplay:10.37,2013-01-18 22:16:00,
2013-01-18 17:21:00,47.0,31.7,30.46,North,351,0.0,1.1,55,0.00,OVC,,0.01,0.0,WeatherDisplay:10.37,2013-01-18 22:21:00,
2013-01-18 17:26:00,46.6,31.7,30.46,North,351,0.0,0.0,56,0.00,OVC,,0.01,0.0,WeatherDisplay:10.37,2013-01-18 22:26:00,
2013-01-18 17:31:00,46.3,32.7,30.47,North,351,0.0,0.0,59,0.00,OVC,,0.01,0.0,WeatherDisplay:10.37,2013-01-18 22:31:00,
2013-01-18 17:36:00,45.9,32.8,30.47,North,351,0.0,0.0,60,0.00,OVC,,0.01,0.0,WeatherDisplay:10.37,2013-01-18 22:36:00,
2013-01-18 17:41:00,45.4,32.7,30.47,North,351,0.0,0.0,61,0.00,OVC,,0.01,0.0,WeatherDisplay:10.37,2013-01-18 22:41:00,
2013-01-18 17:46:00,44.8,32.6,30.47,North,355,0.0,0.0,62,0.00,OVC,,0.01,0.0,WeatherDisplay:10.37,2013-01-18 22:46:00,
2013-01-18 17:51:00,44.3,32.5,30.47,North,351,0.0,0.0,63,0.00,OVC,,0.01,0.0,WeatherDisplay:10.37,2013-01-18 22:51:00,
2013-01-18 17:56:00,43.8,32.8,30.47,North,355,0.0,1.1,65,0.00,OVC,,0.01,0.0,WeatherDisplay:10.37,2013-01-18 22:56:00,
2013-01-18 18:01:00,43.3,33.4,30.47,North,351,0.0,0.0,68,0.00,CLR,OVC,0.01,0.0,WeatherDisplay:10.37,2013-01-18 23:01:00,
2013-01-18 18:06:00,42.8,33.7,30.47,North,351,0.0,0.0,70,0.00,CLR,OVC,0.01,0.0,WeatherDisplay:10.37,2013-01-18 23:06:00,
2013-01-18 18:11:00,42.3,33.6,30.47,North,351,0.0,0.0,71,0.00,CLR,OVC,0.01,0.0,WeatherDisplay:10.37,2013-01-18 23:11:00,
2013-01-18 18:16:00,41.8,33.4,30.48,North,355,0.0,0.0,72,0.00,CLR,OVC,0.01,0.0,WeatherDisplay:10.37,2013-01-18 23:16:00,
2013-01-18 18:22:00,41.3,33.0,30.48,North,351,0.0,0.0,72,0.00,CLR,OVC,0.01,0.0,WeatherDisplay:10.37,2013-01-18 23:22:00,
2013-01-18 18:27:00,40.9,32.6,30.48,North,351,0.0,0.0,72,0.00,CLR,OVC,0.01,0.0,WeatherDisplay:10.37,2013-01-18 23:27:00,
2013-01-18 18:32:00,40.6,32.6,30.49,North,351,0.0,0.0,73,0.00,CLR,OVC,0.01,0.0,WeatherDisplay:10.37,2013-01-18 23:32:00,
2013-01-18 18:37:00,40.4,32.8,30.49,North,351,0.0,0.0,74,0.00,CLR,OVC,0.01,0.0,WeatherDisplay:10.37,2013-01-18 23:37:00,
2013-01-18 18:42:00,40.1,32.8,30.49,North,351,0.0,0.0,75,0.00,CLR,OVC,0.01,0.0,WeatherDisplay:10.37,2013-01-18 23:42:00,
2013-01-18 18:47:00,39.8,32.5,30.49,North,351,0.0,0.0,75,0.00,CLR,OVC,0.01,0.0,WeatherDisplay:10.37,2013-01-18 23:47:00,
2013-01-18 18:52:00,39.5,32.9,30.49,North,351,0.0,0.0,77,0.00,CLR,OVC,0.01,0.0,WeatherDisplay:10.37,2013-01-18 23:52:00,
2013-01-18 18:57:00,39.2,32.9,30.50,North,351,0.0,0.0,78,0.00,CLR,OVC,0.01,0.0,WeatherDisplay:10.37,2013-01-18 23:57:00,
2013-01-18 19:02:00,38.9,32.6,30.50,North,351,0.0,0.0,78,0.00,CLR,OVC,0.01,0.0,WeatherDisplay:10.37,2013-01-19 00:02:00,
2013-01-18 19:07:00,38.6,32.6,30.50,North,351,0.0,0.0,79,0.00,CLR,OVC,0.01,0.0,WeatherDisplay:10.37,2013-01-19 00:07:00,
2013-01-18 19:12:00,38.3,32.4,30.50,North,351,0.0,0.0,79,0.00,CLR,OVC,0.01,0.0,WeatherDisplay:10.37,2013-01-19 00:12:00,
2013-01-18 19:17:00,38.1,32.8,30.51,North,351,0.0,0.0,81,0.00,CLR,OVC,0.01,0.0,WeatherDisplay:10.37,2013-01-19 00:17:00,
2013-01-18 19:22:00,37.9,32.6,30.51,North,351,0.0,0.0,81,0.00,CLR,OVC,0.01,0.0,WeatherDisplay:10.37,2013-01-19 00:22:00,
2013-01-18 19:27:00,37.7,32.4,30.51,North,351,0.0,0.0,81,0.00,CLR,OVC,0.01,0.0,WeatherDisplay:10.37,2013-01-19 00:27:00,
2013-01-18 19:32:00,37.5,32.5,30.51,North,351,0.0,0.0,82,0.00,CLR,OVC,0.01,0.0,WeatherDisplay:10.37,2013-01-19 00:32:00,
2013-01-18 19:37:00,37.3,32.0,30.51,North,351,0.0,0.0,81,0.00,CLR,OVC,0.01,0.0,WeatherDisplay:10.37,2013-01-19 00:37:00,
2013-01-18 19:42:00,37.0,32.0,30.51,North,355,0.0,0.0,82,0.00,CLR,OVC,0.01,0.0,WeatherDisplay:10.37,2013-01-19 00:42:00,
2013-01-18 19:47:00,36.8,32.1,30.51,North,355,0.0,0.0,83,0.00,CLR,OVC,0.01,0.0,WeatherDisplay:10.37,2013-01-19 00:47:00,
2013-01-18 19:52:00,36.6,31.9,30.51,North,355,0.0,0.0,83,0.00,CLR,OVC,0.01,0.0,WeatherDisplay:10.37,2013-01-19 00:52:00,
2013-01-18 19:57:00,36.4,32.0,30.51,North,355,0.0,0.0,84,0.00,CLR,OVC,0.01,0.0,WeatherDisplay:10.37,2013-01-19 00:57:00,
2013-01-18 20:02:00,36.3,31.9,30.51,North,355,0.0,0.0,84,0.00,CLR,OVC,0.01,0.0,WeatherDisplay:10.37,2013-01-19 01:02:00,
2013-01-18 20:07:00,36.1,31.7,30.52,North,351,0.0,0.0,84,0.00,CLR,OVC,0.01,0.0,WeatherDisplay:10.37,2013-01-19 01:07:00,
2013-01-18 20:12:00,35.9,31.5,30.51,North,351,0.0,0.0,84,0.00,CLR,OVC,0.01,0.0,WeatherDisplay:10.37,2013-01-19 01:12:00,
2013-01-18 20:17:00,35.8,31.4,30.51,North,351,0.0,0.0,84,0.00,CLR,OVC,0.01,0.0,WeatherDisplay:10.37,2013-01-19 01:17:00,
2013-01-18 20:22:00,35.7,31.6,30.51,North,351,0.0,0.0,85,0.00,CLR,OVC,0.01,0.0,WeatherDisplay:10.37,2013-01-19 01:22:00,
2013-01-18 20:27:00,35.5,31.4,30.51,North,351,0.0,0.0,85,0.00,CLR,OVC,0.01,0.0,WeatherDisplay:10.37,2013-01-19 01:27:00,
2013-01-18 20:32:00,35.4,31.0,30.52,North,351,0.0,0.0,84,0.00,CLR,OVC,0.01,0.0,WeatherDisplay:10.37,2013-01-19 01:32:00,
2013-01-18 20:37:00,35.3,30.9,30.52,North,355,0.0,0.0,84,0.00,CLR,OVC,0.01,0.0,WeatherDisplay:10.37,2013-01-19 01:37:00,
2013-01-18 20:42:00,35.2,31.1,30.52,North,351,0.0,0.0,85,0.00,CLR,OVC,0.01,0.0,WeatherDisplay:10.37,2013-01-19 01:42:00,
2013-01-18 20:47:00,35.2,31.1,30.52,North,351,0.0,0.0,85,0.00,CLR,OVC,0.01,0.0,WeatherDisplay:10.37,2013-01-19 01:47:00,
2013-01-18 21:02:00,35.1,31.0,30.52,North,351,0.0,0.0,85,0.00,CLR,OVC,0.01,0.0,WeatherDisplay:10.37,2013-01-19 02:02:00,
2013-01-18 21:08:00,35.1,31.0,30.52,North,355,0.0,0.0,85,0.00,RA,OVC,0.01,0.0,WeatherDisplay:10.37,2013-01-19 02:08:00,
2013-01-18 21:13:00,35.0,30.9,30.52,North,355,0.0,0.0,85,0.00,RA,OVC,0.01,0.0,WeatherDisplay:10.37,2013-01-19 02:13:00,
2013-01-18 21:18:00,34.8,30.8,30.52,North,351,0.0,0.0,85,0.00,CLR,OVC,0.01,0.0,WeatherDisplay:10.37,2013-01-19 02:18:00,
2013-01-18 21:23:00,34.8,30.8,30.52,North,355,0.0,0.0,85,0.00,CLR,OVC,0.01,0.0,WeatherDisplay:10.37,2013-01-19 02:23:00,
2013-01-18 21:28:00,34.6,30.6,30.52,North,351,0.0,0.0,85,0.00,CLR,OVC,0.01,0.0,WeatherDisplay:10.37,2013-01-19 02:28:00,
2013-01-18 21:33:00,34.5,30.5,30.52,North,355,0.0,0.0,85,0.00,CLR,OVC,0.01,0.0,WeatherDisplay:10.37,2013-01-19 02:33:00,
2013-01-18 21:38:00,34.4,30.6,30.53,North,351,0.0,1.1,86,0.00,CLR,OVC,0.01,0.0,WeatherDisplay:10.37,2013-01-19 02:38:00,
2013-01-18 21:43:00,34.2,30.4,30.52,North,351,0.0,0.0,86,0.00,CLR,OVC,0.01,0.0,WeatherDisplay:10.37,2013-01-19 02:43:00,
2013-01-18 21:48:00,34.0,30.3,30.52,North,351,0.0,0.0,86,0.00,CLR,OVC,0.01,0.0,WeatherDisplay:10.37,2013-01-19 02:48:00,
2013-01-18 21:53:00,33.9,30.2,30.53,North,351,0.1,1.1,86,0.00,CLR,OVC,0.01,0.0,WeatherDisplay:10.37,2013-01-19 02:53:00,
2013-01-18 21:58:00,33.7,30.0,30.52,North,351,0.0,0.0,86,0.00,CLR,OVC,0.01,0.0,WeatherDisplay:10.37,2013-01-19 02:58:00,
2013-01-18 22:03:00,33.6,30.1,30.52,North,351,0.0,0.0,87,0.00,CLR,OVC,0.01,0.0,WeatherDisplay:10.37,2013-01-19 03:03:00,
2013-01-18 22:08:00,33.5,30.0,30.52,North,351,0.0,0.0,87,0.00,CLR,OVC,0.01,0.0,WeatherDisplay:10.37,2013-01-19 03:08:00,
2013-01-18 22:13:00,33.5,30.0,30.51,North,355,0.0,0.0,87,0.00,CLR,OVC,0.01,0.0,WeatherDisplay:10.37,2013-01-19 03:13:00,
2013-01-18 22:18:00,33.4,29.9,30.51,North,351,0.1,1.1,87,0.00,CLR,OVC,0.01,0.0,WeatherDisplay:10.37,2013-01-19 03:18:00,
2013-01-18 22:23:00,33.4,29.9,30.51,North,355,0.1,1.1,87,0.00,CLR,OVC,0.01,0.0,WeatherDisplay:10.37,2013-01-19 03:23:00,
2013-01-18 22:28:00,33.3,29.8,30.51,North,355,0.0,0.0,87,0.00,CLR,OVC,0.01,0.0,WeatherDisplay:10.37,2013-01-19 03:28:00,
2013-01-18 22:33:00,33.3,29.6,30.51,North,351,0.0,0.0,86,0.00,CLR,OVC,0.01,0.0,WeatherDisplay:10.37,2013-01-19 03:33:00,
2013-01-18 22:38:00,33.2,29.5,30.51,North,351,0.0,0.0,86,0.00,CLR,OVC,0.01,0.0,WeatherDisplay:10.37,2013-01-19 03:38:00,
2013-01-18 22:43:00,33.3,29.0,30.51,North,351,0.0,0.0,84,0.00,CLR,OVC,0.01,0.0,WeatherDisplay:10.37,2013-01-19 03:43:00,
2013-01-18 22:48:00,33.3,29.0,30.51,North,351,0.0,1.1,84,0.00,CLR,OVC,0.01,0.0,WeatherDisplay:10.37,2013-01-19 03:48:00,
2013-01-18 22:53:00,33.2,29.2,30.51,North,355,0.0,1.1,85,0.00,CLR,OVC,0.01,0.0,WeatherDisplay:10.37,2013-01-19 03:53:00,
2013-01-18 22:58:00,33.0,29.0,30.51,North,351,0.0,0.0,85,0.00,CLR,OVC,0.01,0.0,WeatherDisplay:10.37,2013-01-19 03:58:00,
2013-01-18 23:03:00,32.9,28.9,30.51,North,351,0.0,0.0,85,0.00,CLR,OVC,0.01,0.0,WeatherDisplay:10.37,2013-01-19 04:03:00,
2013-01-18 23:08:00,32.8,28.8,30.51,North,355,0.0,0.0,85,0.00,CLR,OVC,0.01,0.0,WeatherDisplay:10.37,2013-01-19 04:08:00,
2013-01-18 23:13:00,32.6,28.9,30.51,North,351,0.1,1.1,86,0.00,CLR,OVC,0.01,0.0,WeatherDisplay:10.37,2013-01-19 04:13:00,
2013-01-18 23:18:00,32.5,28.8,30.51,North,355,0.0,0.0,86,0.00,CLR,OVC,0.01,0.0,WeatherDisplay:10.37,2013-01-19 04:18:00,
2013-01-18 23:23:00,32.3,28.9,30.51,North,351,0.0,0.0,87,0.00,CLR,OVC,0.01,0.0,WeatherDisplay:10.37,2013-01-19 04:23:00,
2013-01-18 23:28:00,32.1,28.7,30.51,North,355,0.0,0.0,87,0.00,CLR,OVC,0.01,0.0,WeatherDisplay:10.37,2013-01-19 04:28:00,
2013-01-18 23:33:00,32.0,28.8,30.51,North,351,0.0,0.0,88,0.00,CLR,OVC,0.01,0.0,WeatherDisplay:10.37,2013-01-19 04:33:00,
2013-01-18 23:38:00,31.9,28.8,30.51,North,355,0.0,0.0,88,0.00,CLR,OVC,0.01,0.0,WeatherDisplay:10.37,2013-01-19 04:38:00,
2013-01-18 23:43:00,31.8,28.7,30.51,North,355,0.0,0.0,88,0.00,CLR,OVC,0.01,0.0,WeatherDisplay:10.37,2013-01-19 04:43:00,
2013-01-18 23:48:00,31.8,28.7,30.51,North,355,0.0,0.0,88,0.00,CLR,OVC,0.01,0.0,WeatherDisplay:10.37,2013-01-19 04:48:00,
2013-01-18 23:53:00,31.9,28.8,30.51,North,355,0.3,1.1,88,0.00,CLR,OVC,0.01,0.0,WeatherDisplay:10.37,2013-01-19 04:53:00,
2013-01-18 23:58:00,31.7,28.6,30.51,North,351,0.1,0.0,88,0.00,CLR,OVC,0.01,0.0,WeatherDisplay:10.37,2013-01-19 04:58:00,